sensor_id;sensor_type;location;lat;lon;timestamp;P1;durP1;ratioP1;P2;durP2;ratioP2
59127;SDS011;44912;52.754;5.994;2023-04-12T00:00:32;9.07;;;2.05;;
59127;SDS011;44912;52.754;5.994;2023-04-12T00:02:57;11.50;;;2.40;;
59127;SDS011;44912;52.754;5.994;2023-04-12T00:05:27;12.70;;;2.40;;
59127;SDS011;44912;52.754;5.994;2023-04-12T00:07:53;10.68;;;2.70;;
59127;SDS011;44912;52.754;5.994;2023-04-12T00:10:19;10.55;;;2.15;;
59127;SDS011;44912;52.754;5.994;2023-04-12T00:12:45;6.88;;;2.10;;
59127;SDS011;44912;52.754;5.994;2023-04-12T00:15:11;8.73;;;2.38;;
59127;SDS011;44912;52.754;5.994;2023-04-12T00:17:37;10.05;;;2.08;;
59127;SDS011;44912;52.754;5.994;2023-04-12T00:20:02;10.13;;;1.80;;
59127;SDS011;44912;52.754;5.994;2023-04-12T00:22:31;9.95;;;2.40;;
59127;SDS011;44912;52.754;5.994;2023-04-12T00:24:57;9.23;;;2.03;;
59127;SDS011;44912;52.754;5.994;2023-04-12T00:27:22;9.07;;;2.00;;
59127;SDS011;44912;52.754;5.994;2023-04-12T00:29:49;9.40;;;2.08;;
59127;SDS011;44912;52.754;5.994;2023-04-12T00:32:15;7.40;;;1.90;;
59127;SDS011;44912;52.754;5.994;2023-04-12T00:34:40;9.40;;;2.25;;
59127;SDS011;44912;52.754;5.994;2023-04-12T00:37:06;10.40;;;1.90;;
59127;SDS011;44912;52.754;5.994;2023-04-12T00:39:31;9.75;;;1.98;;
59127;SDS011;44912;52.754;5.994;2023-04-12T00:41:58;8.77;;;2.13;;
59127;SDS011;44912;52.754;5.994;2023-04-12T00:44:27;10.82;;;2.13;;
59127;SDS011;44912;52.754;5.994;2023-04-12T00:46:52;7.47;;;2.15;;
59127;SDS011;44912;52.754;5.994;2023-04-12T00:49:18;5.93;;;2.25;;
59127;SDS011;44912;52.754;5.994;2023-04-12T00:51:44;10.15;;;2.03;;
59127;SDS011;44912;52.754;5.994;2023-04-12T00:54:09;8.00;;;2.00;;
59127;SDS011;44912;52.754;5.994;2023-04-12T00:56:35;9.25;;;2.22;;
59127;SDS011;44912;52.754;5.994;2023-04-12T00:59:02;9.90;;;2.03;;
59127;SDS011;44912;52.754;5.994;2023-04-12T01:01:27;11.50;;;2.00;;
59127;SDS011;44912;52.754;5.994;2023-04-12T01:03:53;8.15;;;2.10;;
59127;SDS011;44912;52.754;5.994;2023-04-12T01:06:36;8.52;;;2.25;;
59127;SDS011;44912;52.754;5.994;2023-04-12T01:09:30;9.45;;;1.90;;
59127;SDS011;44912;52.754;5.994;2023-04-12T01:15:04;11.35;;;2.78;;
59127;SDS011;44912;52.754;5.994;2023-04-12T01:17:34;10.57;;;2.58;;
59127;SDS011;44912;52.754;5.994;2023-04-12T01:25:39;13.07;;;3.03;;
59127;SDS011;44912;52.754;5.994;2023-04-12T01:28:22;11.00;;;2.17;;
59127;SDS011;44912;52.754;5.994;2023-04-12T01:30:56;9.40;;;2.30;;
59127;SDS011;44912;52.754;5.994;2023-04-12T01:33:22;6.93;;;2.00;;
59127;SDS011;44912;52.754;5.994;2023-04-12T01:35:55;11.45;;;2.50;;
59127;SDS011;44912;52.754;5.994;2023-04-12T01:38:22;7.78;;;2.20;;
59127;SDS011;44912;52.754;5.994;2023-04-12T01:40:48;8.05;;;2.17;;
59127;SDS011;44912;52.754;5.994;2023-04-12T01:43:14;9.93;;;2.53;;
59127;SDS011;44912;52.754;5.994;2023-04-12T01:45:40;9.73;;;2.60;;
59127;SDS011;44912;52.754;5.994;2023-04-12T01:48:09;9.60;;;2.50;;
59127;SDS011;44912;52.754;5.994;2023-04-12T01:56:06;8.48;;;2.40;;
59127;SDS011;44912;52.754;5.994;2023-04-12T01:58:33;7.50;;;2.15;;
59127;SDS011;44912;52.754;5.994;2023-04-12T02:01:00;7.90;;;2.30;;
59127;SDS011;44912;52.754;5.994;2023-04-12T02:03:27;9.65;;;2.60;;
59127;SDS011;44912;52.754;5.994;2023-04-12T02:05:57;10.02;;;2.33;;
59127;SDS011;44912;52.754;5.994;2023-04-12T02:08:24;9.13;;;2.53;;
59127;SDS011;44912;52.754;5.994;2023-04-12T02:10:50;9.90;;;2.70;;
59127;SDS011;44912;52.754;5.994;2023-04-12T02:13:16;7.57;;;2.30;;
59127;SDS011;44912;52.754;5.994;2023-04-12T02:15:42;7.90;;;2.40;;
59127;SDS011;44912;52.754;5.994;2023-04-12T02:18:08;8.18;;;2.10;;
59127;SDS011;44912;52.754;5.994;2023-04-12T02:20:34;8.20;;;2.05;;
59127;SDS011;44912;52.754;5.994;2023-04-12T02:22:59;7.13;;;2.10;;
59127;SDS011;44912;52.754;5.994;2023-04-12T02:25:25;8.88;;;2.25;;
59127;SDS011;44912;52.754;5.994;2023-04-12T02:27:51;9.30;;;2.38;;
59127;SDS011;44912;52.754;5.994;2023-04-12T02:30:16;7.43;;;1.85;;
59127;SDS011;44912;52.754;5.994;2023-04-12T02:32:42;10.07;;;2.20;;
59127;SDS011;44912;52.754;5.994;2023-04-12T02:35:09;6.75;;;2.45;;
59127;SDS011;44912;52.754;5.994;2023-04-12T02:37:42;10.48;;;2.30;;
59127;SDS011;44912;52.754;5.994;2023-04-12T02:40:09;9.75;;;2.45;;
59127;SDS011;44912;52.754;5.994;2023-04-12T02:42:35;8.95;;;2.10;;
59127;SDS011;44912;52.754;5.994;2023-04-12T02:45:01;8.00;;;1.88;;
59127;SDS011;44912;52.754;5.994;2023-04-12T02:47:28;6.78;;;1.80;;
59127;SDS011;44912;52.754;5.994;2023-04-12T02:49:54;5.93;;;1.92;;
59127;SDS011;44912;52.754;5.994;2023-04-12T02:52:20;9.95;;;2.03;;
59127;SDS011;44912;52.754;5.994;2023-04-12T02:54:46;10.05;;;2.25;;
59127;SDS011;44912;52.754;5.994;2023-04-12T02:57:15;9.18;;;2.40;;
59127;SDS011;44912;52.754;5.994;2023-04-12T02:59:41;8.23;;;2.20;;
59127;SDS011;44912;52.754;5.994;2023-04-12T03:02:06;8.25;;;2.30;;
59127;SDS011;44912;52.754;5.994;2023-04-12T03:04:32;7.35;;;2.20;;
59127;SDS011;44912;52.754;5.994;2023-04-12T03:06:58;7.78;;;2.33;;
59127;SDS011;44912;52.754;5.994;2023-04-12T03:09:24;9.55;;;2.45;;
59127;SDS011;44912;52.754;5.994;2023-04-12T03:11:50;7.80;;;2.67;;
59127;SDS011;44912;52.754;5.994;2023-04-12T03:14:15;9.98;;;2.80;;
59127;SDS011;44912;52.754;5.994;2023-04-12T03:16:41;10.23;;;2.67;;
59127;SDS011;44912;52.754;5.994;2023-04-12T03:19:07;9.85;;;2.50;;
59127;SDS011;44912;52.754;5.994;2023-04-12T03:21:33;6.93;;;2.20;;
59127;SDS011;44912;52.754;5.994;2023-04-12T03:23:59;7.57;;;2.50;;
59127;SDS011;44912;52.754;5.994;2023-04-12T03:26:25;9.70;;;3.20;;
59127;SDS011;44912;52.754;5.994;2023-04-12T03:28:53;10.55;;;2.65;;
59127;SDS011;44912;52.754;5.994;2023-04-12T03:31:24;7.35;;;2.10;;
59127;SDS011;44912;52.754;5.994;2023-04-12T03:33:51;8.45;;;2.38;;
59127;SDS011;44912;52.754;5.994;2023-04-12T03:36:17;6.72;;;1.90;;
59127;SDS011;44912;52.754;5.994;2023-04-12T03:38:44;7.85;;;2.38;;
59127;SDS011;44912;52.754;5.994;2023-04-12T03:41:10;6.00;;;2.00;;
59127;SDS011;44912;52.754;5.994;2023-04-12T03:43:35;7.35;;;1.88;;
59127;SDS011;44912;52.754;5.994;2023-04-12T03:46:04;5.13;;;1.80;;
59127;SDS011;44912;52.754;5.994;2023-04-12T03:48:30;6.43;;;1.70;;
59127;SDS011;44912;52.754;5.994;2023-04-12T03:50:56;7.55;;;2.03;;
59127;SDS011;44912;52.754;5.994;2023-04-12T03:53:24;8.70;;;2.00;;
59127;SDS011;44912;52.754;5.994;2023-04-12T03:55:55;6.32;;;2.10;;
59127;SDS011;44912;52.754;5.994;2023-04-12T03:58:21;6.20;;;1.70;;
59127;SDS011;44912;52.754;5.994;2023-04-12T04:00:47;9.20;;;2.10;;
59127;SDS011;44912;52.754;5.994;2023-04-12T04:03:13;8.07;;;1.92;;
59127;SDS011;44912;52.754;5.994;2023-04-12T04:05:39;6.53;;;2.10;;
59127;SDS011;44912;52.754;5.994;2023-04-12T04:08:05;7.50;;;1.98;;
59127;SDS011;44912;52.754;5.994;2023-04-12T04:10:32;5.43;;;1.95;;
59127;SDS011;44912;52.754;5.994;2023-04-12T04:12:58;9.68;;;2.40;;
59127;SDS011;44912;52.754;5.994;2023-04-12T04:15:26;7.68;;;2.08;;
59127;SDS011;44912;52.754;5.994;2023-04-12T04:17:52;7.15;;;2.10;;
59127;SDS011;44912;52.754;5.994;2023-04-12T04:20:18;8.68;;;2.10;;
59127;SDS011;44912;52.754;5.994;2023-04-12T04:22:44;8.07;;;2.30;;
59127;SDS011;44912;52.754;5.994;2023-04-12T04:25:14;7.43;;;2.10;;
59127;SDS011;44912;52.754;5.994;2023-04-12T04:27:40;9.20;;;3.10;;
59127;SDS011;44912;52.754;5.994;2023-04-12T04:30:08;10.60;;;3.40;;
59127;SDS011;44912;52.754;5.994;2023-04-12T04:32:35;7.57;;;2.50;;
59127;SDS011;44912;52.754;5.994;2023-04-12T04:35:01;6.53;;;2.33;;
59127;SDS011;44912;52.754;5.994;2023-04-12T04:37:27;9.43;;;2.17;;
59127;SDS011;44912;52.754;5.994;2023-04-12T04:39:54;6.97;;;2.30;;
59127;SDS011;44912;52.754;5.994;2023-04-12T04:42:20;7.68;;;2.45;;
59127;SDS011;44912;52.754;5.994;2023-04-12T04:44:47;9.68;;;2.40;;
59127;SDS011;44912;52.754;5.994;2023-04-12T04:47:15;7.53;;;2.50;;
59127;SDS011;44912;52.754;5.994;2023-04-12T04:49:42;8.77;;;2.47;;
59127;SDS011;44912;52.754;5.994;2023-04-12T04:52:08;6.60;;;2.45;;
59127;SDS011;44912;52.754;5.994;2023-04-12T04:54:34;9.07;;;2.88;;
59127;SDS011;44912;52.754;5.994;2023-04-12T04:57:00;11.15;;;3.13;;
59127;SDS011;44912;52.754;5.994;2023-04-12T04:59:25;10.30;;;3.30;;
59127;SDS011;44912;52.754;5.994;2023-04-12T05:01:51;9.55;;;3.92;;
59127;SDS011;44912;52.754;5.994;2023-04-12T05:04:17;8.30;;;4.00;;
59127;SDS011;44912;52.754;5.994;2023-04-12T05:06:42;9.00;;;4.03;;
59127;SDS011;44912;52.754;5.994;2023-04-12T05:09:08;7.75;;;4.10;;
59127;SDS011;44912;52.754;5.994;2023-04-12T05:11:34;11.70;;;4.57;;
59127;SDS011;44912;52.754;5.994;2023-04-12T05:13:59;10.27;;;4.85;;
59127;SDS011;44912;52.754;5.994;2023-04-12T05:16:25;10.27;;;4.80;;
59127;SDS011;44912;52.754;5.994;2023-04-12T05:18:51;11.55;;;5.10;;
59127;SDS011;44912;52.754;5.994;2023-04-12T05:21:16;10.75;;;5.10;;
59127;SDS011;44912;52.754;5.994;2023-04-12T05:23:43;12.88;;;5.30;;
59127;SDS011;44912;52.754;5.994;2023-04-12T05:26:10;11.25;;;5.32;;
59127;SDS011;44912;52.754;5.994;2023-04-12T05:28:36;9.98;;;5.30;;
59127;SDS011;44912;52.754;5.994;2023-04-12T05:31:01;9.15;;;5.65;;
59127;SDS011;44912;52.754;5.994;2023-04-12T05:33:27;14.32;;;5.90;;
59127;SDS011;44912;52.754;5.994;2023-04-12T05:35:53;11.52;;;5.72;;
59127;SDS011;44912;52.754;5.994;2023-04-12T05:38:19;13.32;;;6.18;;
59127;SDS011;44912;52.754;5.994;2023-04-12T05:40:44;12.63;;;6.25;;
59127;SDS011;44912;52.754;5.994;2023-04-12T05:43:10;11.68;;;6.55;;
59127;SDS011;44912;52.754;5.994;2023-04-12T05:45:37;11.18;;;6.10;;
59127;SDS011;44912;52.754;5.994;2023-04-12T05:48:06;10.95;;;6.18;;
59127;SDS011;44912;52.754;5.994;2023-04-12T05:50:32;11.98;;;5.60;;
59127;SDS011;44912;52.754;5.994;2023-04-12T05:52:59;12.63;;;5.75;;
59127;SDS011;44912;52.754;5.994;2023-04-12T05:55:26;10.48;;;5.82;;
59127;SDS011;44912;52.754;5.994;2023-04-12T05:57:52;11.38;;;6.13;;
59127;SDS011;44912;52.754;5.994;2023-04-12T06:00:18;13.05;;;5.60;;
59127;SDS011;44912;52.754;5.994;2023-04-12T06:02:45;13.15;;;5.82;;
59127;SDS011;44912;52.754;5.994;2023-04-12T06:05:12;10.15;;;5.40;;
59127;SDS011;44912;52.754;5.994;2023-04-12T06:07:39;11.52;;;6.00;;
59127;SDS011;44912;52.754;5.994;2023-04-12T06:10:06;9.75;;;4.88;;
59127;SDS011;44912;52.754;5.994;2023-04-12T06:12:32;9.27;;;5.07;;
59127;SDS011;44912;52.754;5.994;2023-04-12T06:14:58;10.82;;;5.07;;
59127;SDS011;44912;52.754;5.994;2023-04-12T06:17:23;8.48;;;4.50;;
59127;SDS011;44912;52.754;5.994;2023-04-12T06:19:49;9.07;;;5.28;;
59127;SDS011;44912;52.754;5.994;2023-04-12T06:22:14;11.05;;;5.32;;
59127;SDS011;44912;52.754;5.994;2023-04-12T06:24:40;8.77;;;4.65;;
59127;SDS011;44912;52.754;5.994;2023-04-12T06:27:06;8.25;;;4.70;;
59127;SDS011;44912;52.754;5.994;2023-04-12T06:29:31;7.72;;;4.30;;
59127;SDS011;44912;52.754;5.994;2023-04-12T06:31:57;10.30;;;4.20;;
59127;SDS011;44912;52.754;5.994;2023-04-12T06:34:22;9.35;;;4.50;;
59127;SDS011;44912;52.754;5.994;2023-04-12T06:36:48;9.40;;;4.10;;
59127;SDS011;44912;52.754;5.994;2023-04-12T06:39:13;8.32;;;4.10;;
59127;SDS011;44912;52.754;5.994;2023-04-12T06:41:40;8.23;;;3.55;;
59127;SDS011;44912;52.754;5.994;2023-04-12T06:44:08;7.90;;;3.95;;
59127;SDS011;44912;52.754;5.994;2023-04-12T06:46:34;9.02;;;3.78;;
59127;SDS011;44912;52.754;5.994;2023-04-12T06:48:59;6.75;;;3.78;;
59127;SDS011;44912;52.754;5.994;2023-04-12T06:51:25;9.70;;;3.70;;
59127;SDS011;44912;52.754;5.994;2023-04-12T06:53:52;8.15;;;3.25;;
59127;SDS011;44912;52.754;5.994;2023-04-12T06:56:17;7.22;;;3.72;;
59127;SDS011;44912;52.754;5.994;2023-04-12T06:58:43;7.10;;;3.67;;
59127;SDS011;44912;52.754;5.994;2023-04-12T07:01:09;6.25;;;3.00;;
59127;SDS011;44912;52.754;5.994;2023-04-12T07:03:35;5.93;;;3.40;;
59127;SDS011;44912;52.754;5.994;2023-04-12T07:06:01;6.38;;;3.17;;
59127;SDS011;44912;52.754;5.994;2023-04-12T07:08:28;6.57;;;3.03;;
59127;SDS011;44912;52.754;5.994;2023-04-12T07:10:54;5.22;;;2.95;;
59127;SDS011;44912;52.754;5.994;2023-04-12T07:13:20;6.38;;;3.50;;
59127;SDS011;44912;52.754;5.994;2023-04-12T07:15:47;6.53;;;3.15;;
59127;SDS011;44912;52.754;5.994;2023-04-12T07:18:13;6.47;;;3.40;;
59127;SDS011;44912;52.754;5.994;2023-04-12T07:20:38;6.10;;;3.17;;
59127;SDS011;44912;52.754;5.994;2023-04-12T07:23:04;7.82;;;3.33;;
59127;SDS011;44912;52.754;5.994;2023-04-12T07:25:30;5.88;;;3.08;;
59127;SDS011;44912;52.754;5.994;2023-04-12T07:27:55;6.15;;;3.72;;
59127;SDS011;44912;52.754;5.994;2023-04-12T07:30:21;7.38;;;3.70;;
59127;SDS011;44912;52.754;5.994;2023-04-12T07:32:47;7.00;;;3.80;;
59127;SDS011;44912;52.754;5.994;2023-04-12T07:35:12;8.40;;;3.97;;
59127;SDS011;44912;52.754;5.994;2023-04-12T07:37:38;6.65;;;4.18;;
59127;SDS011;44912;52.754;5.994;2023-04-12T07:40:04;7.95;;;4.60;;
59127;SDS011;44912;52.754;5.994;2023-04-12T07:42:30;7.30;;;4.28;;
59127;SDS011;44912;52.754;5.994;2023-04-12T07:44:56;7.32;;;4.20;;
59127;SDS011;44912;52.754;5.994;2023-04-12T07:47:22;7.88;;;4.15;;
59127;SDS011;44912;52.754;5.994;2023-04-12T07:49:47;7.47;;;4.50;;
59127;SDS011;44912;52.754;5.994;2023-04-12T07:52:13;7.90;;;4.40;;
59127;SDS011;44912;52.754;5.994;2023-04-12T07:54:38;8.00;;;4.40;;
59127;SDS011;44912;52.754;5.994;2023-04-12T07:57:04;7.20;;;3.67;;
59127;SDS011;44912;52.754;5.994;2023-04-12T07:59:30;6.50;;;3.95;;
59127;SDS011;44912;52.754;5.994;2023-04-12T08:01:56;6.00;;;3.50;;
59127;SDS011;44912;52.754;5.994;2023-04-12T08:04:22;7.35;;;3.80;;
59127;SDS011;44912;52.754;5.994;2023-04-12T08:06:47;7.72;;;4.20;;
59127;SDS011;44912;52.754;5.994;2023-04-12T08:09:13;6.15;;;3.58;;
59127;SDS011;44912;52.754;5.994;2023-04-12T08:11:38;7.63;;;4.10;;
59127;SDS011;44912;52.754;5.994;2023-04-12T08:14:04;6.95;;;4.03;;
59127;SDS011;44912;52.754;5.994;2023-04-12T08:16:30;8.95;;;4.57;;
59127;SDS011;44912;52.754;5.994;2023-04-12T08:18:56;5.95;;;3.83;;
59127;SDS011;44912;52.754;5.994;2023-04-12T08:21:22;6.60;;;3.83;;
59127;SDS011;44912;52.754;5.994;2023-04-12T08:23:47;7.13;;;4.05;;
59127;SDS011;44912;52.754;5.994;2023-04-12T08:26:15;6.93;;;3.92;;
59127;SDS011;44912;52.754;5.994;2023-04-12T08:28:40;6.78;;;3.70;;
59127;SDS011;44912;52.754;5.994;2023-04-12T08:31:06;6.75;;;3.53;;
59127;SDS011;44912;52.754;5.994;2023-04-12T08:33:38;5.80;;;3.20;;
59127;SDS011;44912;52.754;5.994;2023-04-12T08:36:16;7.43;;;3.50;;
59127;SDS011;44912;52.754;5.994;2023-04-12T08:38:42;7.35;;;3.45;;
59127;SDS011;44912;52.754;5.994;2023-04-12T08:41:08;7.00;;;3.63;;
59127;SDS011;44912;52.754;5.994;2023-04-12T08:43:43;9.18;;;3.38;;
59127;SDS011;44912;52.754;5.994;2023-04-12T08:46:13;8.00;;;3.38;;
59127;SDS011;44912;52.754;5.994;2023-04-12T08:48:42;9.65;;;3.55;;
59127;SDS011;44912;52.754;5.994;2023-04-12T08:51:13;9.50;;;3.90;;
59127;SDS011;44912;52.754;5.994;2023-04-12T08:53:46;9.15;;;3.90;;
59127;SDS011;44912;52.754;5.994;2023-04-12T08:56:13;9.18;;;4.53;;
59127;SDS011;44912;52.754;5.994;2023-04-12T08:58:55;8.27;;;3.83;;
59127;SDS011;44912;52.754;5.994;2023-04-12T09:01:21;8.85;;;3.97;;
59127;SDS011;44912;52.754;5.994;2023-04-12T09:03:47;10.35;;;4.15;;
59127;SDS011;44912;52.754;5.994;2023-04-12T09:06:15;7.07;;;3.75;;
59127;SDS011;44912;52.754;5.994;2023-04-12T09:08:54;10.63;;;4.40;;
59127;SDS011;44912;52.754;5.994;2023-04-12T09:11:34;14.50;;;4.65;;
59127;SDS011;44912;52.754;5.994;2023-04-12T09:14:22;10.60;;;4.22;;
59127;SDS011;44912;52.754;5.994;2023-04-12T09:17:32;13.60;;;4.95;;
59127;SDS011;44912;52.754;5.994;2023-04-12T09:20:00;11.98;;;4.63;;
59127;SDS011;44912;52.754;5.994;2023-04-12T09:22:31;16.52;;;4.60;;
59127;SDS011;44912;52.754;5.994;2023-04-12T09:25:01;13.27;;;4.57;;
59127;SDS011;44912;52.754;5.994;2023-04-12T09:27:27;11.20;;;4.30;;
59127;SDS011;44912;52.754;5.994;2023-04-12T09:30:06;14.40;;;4.07;;
59127;SDS011;44912;52.754;5.994;2023-04-12T09:32:33;16.52;;;4.63;;
59127;SDS011;44912;52.754;5.994;2023-04-12T09:34:58;11.82;;;4.47;;
59127;SDS011;44912;52.754;5.994;2023-04-12T09:37:29;13.40;;;3.75;;
59127;SDS011;44912;52.754;5.994;2023-04-12T09:39:58;13.68;;;3.70;;
59127;SDS011;44912;52.754;5.994;2023-04-12T09:42:29;10.07;;;3.60;;
59127;SDS011;44912;52.754;5.994;2023-04-12T09:44:58;18.95;;;3.47;;
59127;SDS011;44912;52.754;5.994;2023-04-12T09:47:37;15.10;;;2.88;;
59127;SDS011;44912;52.754;5.994;2023-04-12T09:50:04;13.52;;;3.00;;
59127;SDS011;44912;52.754;5.994;2023-04-12T09:52:35;15.23;;;3.35;;
59127;SDS011;44912;52.754;5.994;2023-04-12T09:55:02;13.07;;;2.88;;
59127;SDS011;44912;52.754;5.994;2023-04-12T09:57:33;10.48;;;2.47;;
59127;SDS011;44912;52.754;5.994;2023-04-12T10:00:02;12.30;;;2.47;;
59127;SDS011;44912;52.754;5.994;2023-04-12T10:02:36;15.35;;;3.03;;
59127;SDS011;44912;52.754;5.994;2023-04-12T10:05:04;16.60;;;2.80;;
59127;SDS011;44912;52.754;5.994;2023-04-12T10:07:30;15.05;;;2.88;;
59127;SDS011;44912;52.754;5.994;2023-04-12T10:09:57;14.45;;;2.83;;
59127;SDS011;44912;52.754;5.994;2023-04-12T10:12:25;13.70;;;2.55;;
59127;SDS011;44912;52.754;5.994;2023-04-12T10:14:51;15.48;;;3.00;;
59127;SDS011;44912;52.754;5.994;2023-04-12T10:17:19;19.40;;;3.25;;
59127;SDS011;44912;52.754;5.994;2023-04-12T10:19:50;13.43;;;2.38;;
59127;SDS011;44912;52.754;5.994;2023-04-12T10:22:16;14.05;;;2.35;;
59127;SDS011;44912;52.754;5.994;2023-04-12T10:24:43;15.32;;;3.10;;
59127;SDS011;44912;52.754;5.994;2023-04-12T10:27:10;20.55;;;3.55;;
59127;SDS011;44912;52.754;5.994;2023-04-12T10:29:37;18.35;;;2.90;;
59127;SDS011;44912;52.754;5.994;2023-04-12T10:32:20;18.42;;;3.17;;
59127;SDS011;44912;52.754;5.994;2023-04-12T10:34:51;13.98;;;2.90;;
59127;SDS011;44912;52.754;5.994;2023-04-12T10:37:18;21.30;;;3.63;;
59127;SDS011;44912;52.754;5.994;2023-04-12T10:39:45;14.95;;;2.25;;
59127;SDS011;44912;52.754;5.994;2023-04-12T10:42:20;15.73;;;3.17;;
59127;SDS011;44912;52.754;5.994;2023-04-12T10:44:50;20.10;;;3.08;;
59127;SDS011;44912;52.754;5.994;2023-04-12T10:50:29;18.63;;;2.63;;
59127;SDS011;44912;52.754;5.994;2023-04-12T10:55:37;14.55;;;2.90;;
59127;SDS011;44912;52.754;5.994;2023-04-12T10:58:09;16.42;;;2.75;;
59127;SDS011;44912;52.754;5.994;2023-04-12T11:03:22;14.18;;;2.40;;
59127;SDS011;44912;52.754;5.994;2023-04-12T11:05:58;16.15;;;2.67;;
59127;SDS011;44912;52.754;5.994;2023-04-12T11:08:29;16.83;;;2.85;;
59127;SDS011;44912;52.754;5.994;2023-04-12T11:11:01;14.85;;;2.65;;
59127;SDS011;44912;52.754;5.994;2023-04-12T11:13:28;14.90;;;2.78;;
59127;SDS011;44912;52.754;5.994;2023-04-12T11:16:02;14.43;;;2.80;;
59127;SDS011;44912;52.754;5.994;2023-04-12T11:18:33;13.68;;;2.60;;
59127;SDS011;44912;52.754;5.994;2023-04-12T11:21:02;13.30;;;2.38;;
59127;SDS011;44912;52.754;5.994;2023-04-12T11:23:31;15.23;;;2.85;;
59127;SDS011;44912;52.754;5.994;2023-04-12T11:25:57;13.98;;;2.53;;
59127;SDS011;44912;52.754;5.994;2023-04-12T11:28:23;15.20;;;2.63;;
59127;SDS011;44912;52.754;5.994;2023-04-12T11:30:53;11.82;;;1.98;;
59127;SDS011;44912;52.754;5.994;2023-04-12T11:38:31;14.70;;;2.47;;
59127;SDS011;44912;52.754;5.994;2023-04-12T11:40:58;11.27;;;2.00;;
59127;SDS011;44912;52.754;5.994;2023-04-12T11:43:24;12.95;;;2.05;;
59127;SDS011;44912;52.754;5.994;2023-04-12T11:45:59;10.68;;;2.25;;
59127;SDS011;44912;52.754;5.994;2023-04-12T11:48:26;12.70;;;2.42;;
59127;SDS011;44912;52.754;5.994;2023-04-12T11:50:52;10.15;;;1.83;;
59127;SDS011;44912;52.754;5.994;2023-04-12T11:53:17;11.45;;;2.05;;
59127;SDS011;44912;52.754;5.994;2023-04-12T11:55:47;13.00;;;2.28;;
59127;SDS011;44912;52.754;5.994;2023-04-12T11:58:13;14.80;;;2.97;;
59127;SDS011;44912;52.754;5.994;2023-04-12T12:00:40;13.80;;;2.75;;
59127;SDS011;44912;52.754;5.994;2023-04-12T12:03:06;20.25;;;2.78;;
59127;SDS011;44912;52.754;5.994;2023-04-12T12:05:31;13.65;;;2.55;;
59127;SDS011;44912;52.754;5.994;2023-04-12T12:08:00;12.60;;;2.13;;
59127;SDS011;44912;52.754;5.994;2023-04-12T12:10:29;14.75;;;2.67;;
59127;SDS011;44912;52.754;5.994;2023-04-12T12:12:58;12.98;;;2.70;;
59127;SDS011;44912;52.754;5.994;2023-04-12T12:15:28;10.75;;;2.20;;
59127;SDS011;44912;52.754;5.994;2023-04-12T12:17:55;14.60;;;2.60;;
59127;SDS011;44912;52.754;5.994;2023-04-12T12:20:20;17.73;;;3.13;;
59127;SDS011;44912;52.754;5.994;2023-04-12T12:22:48;15.60;;;2.80;;
59127;SDS011;44912;52.754;5.994;2023-04-12T12:25:13;13.70;;;2.25;;
59127;SDS011;44912;52.754;5.994;2023-04-12T12:27:42;12.00;;;2.50;;
59127;SDS011;44912;52.754;5.994;2023-04-12T12:30:12;15.05;;;2.38;;
59127;SDS011;44912;52.754;5.994;2023-04-12T12:32:41;14.43;;;2.30;;
59127;SDS011;44912;52.754;5.994;2023-04-12T12:35:13;14.43;;;2.85;;
59127;SDS011;44912;52.754;5.994;2023-04-12T12:37:49;11.18;;;2.08;;
59127;SDS011;44912;52.754;5.994;2023-04-12T12:40:16;11.63;;;2.15;;
59127;SDS011;44912;52.754;5.994;2023-04-12T12:45:19;15.52;;;2.40;;
59127;SDS011;44912;52.754;5.994;2023-04-12T12:47:52;17.15;;;2.83;;
59127;SDS011;44912;52.754;5.994;2023-04-12T12:50:23;11.57;;;2.03;;
59127;SDS011;44912;52.754;5.994;2023-04-12T12:52:56;13.68;;;2.45;;
59127;SDS011;44912;52.754;5.994;2023-04-12T12:55:23;12.98;;;2.25;;
59127;SDS011;44912;52.754;5.994;2023-04-12T12:57:50;14.00;;;2.90;;
59127;SDS011;44912;52.754;5.994;2023-04-12T13:00:17;11.38;;;2.13;;
59127;SDS011;44912;52.754;5.994;2023-04-12T13:02:44;14.93;;;2.60;;
59127;SDS011;44912;52.754;5.994;2023-04-12T13:05:10;14.55;;;1.80;;
59127;SDS011;44912;52.754;5.994;2023-04-12T13:07:36;14.05;;;2.67;;
59127;SDS011;44912;52.754;5.994;2023-04-12T13:10:02;8.70;;;1.60;;
59127;SDS011;44912;52.754;5.994;2023-04-12T13:12:28;12.70;;;2.20;;
59127;SDS011;44912;52.754;5.994;2023-04-12T13:14:55;9.23;;;1.88;;
59127;SDS011;44912;52.754;5.994;2023-04-12T13:17:20;12.43;;;2.10;;
59127;SDS011;44912;52.754;5.994;2023-04-12T13:19:46;9.75;;;1.83;;
59127;SDS011;44912;52.754;5.994;2023-04-12T13:22:12;14.98;;;2.00;;
59127;SDS011;44912;52.754;5.994;2023-04-12T13:24:38;8.85;;;1.88;;
59127;SDS011;44912;52.754;5.994;2023-04-12T13:27:04;12.43;;;2.15;;
59127;SDS011;44912;52.754;5.994;2023-04-12T13:29:29;11.43;;;1.65;;
59127;SDS011;44912;52.754;5.994;2023-04-12T13:31:55;8.52;;;1.83;;
59127;SDS011;44912;52.754;5.994;2023-04-12T13:34:20;8.43;;;1.70;;
59127;SDS011;44912;52.754;5.994;2023-04-12T13:36:46;10.80;;;2.00;;
59127;SDS011;44912;52.754;5.994;2023-04-12T13:39:13;15.75;;;2.47;;
59127;SDS011;44912;52.754;5.994;2023-04-12T13:41:38;14.57;;;2.13;;
59127;SDS011;44912;52.754;5.994;2023-04-12T13:44:04;12.43;;;2.15;;
59127;SDS011;44912;52.754;5.994;2023-04-12T13:46:29;10.50;;;1.95;;
59127;SDS011;44912;52.754;5.994;2023-04-12T13:48:55;11.10;;;1.85;;
59127;SDS011;44912;52.754;5.994;2023-04-12T13:51:21;11.20;;;1.77;;
59127;SDS011;44912;52.754;5.994;2023-04-12T13:53:46;11.50;;;2.20;;
59127;SDS011;44912;52.754;5.994;2023-04-12T13:56:12;10.15;;;1.83;;
59127;SDS011;44912;52.754;5.994;2023-04-12T13:58:39;15.63;;;2.28;;
59127;SDS011;44912;52.754;5.994;2023-04-12T14:01:05;11.50;;;1.92;;
59127;SDS011;44912;52.754;5.994;2023-04-12T14:03:32;11.25;;;2.13;;
59127;SDS011;44912;52.754;5.994;2023-04-12T14:05:58;14.15;;;3.00;;
59127;SDS011;44912;52.754;5.994;2023-04-12T14:08:25;15.05;;;3.22;;
59127;SDS011;44912;52.754;5.994;2023-04-12T14:10:51;11.77;;;2.08;;
59127;SDS011;44912;52.754;5.994;2023-04-12T14:13:18;10.95;;;2.33;;
59127;SDS011;44912;52.754;5.994;2023-04-12T14:15:45;12.32;;;2.17;;
59127;SDS011;44912;52.754;5.994;2023-04-12T14:18:11;12.77;;;2.00;;
59127;SDS011;44912;52.754;5.994;2023-04-12T14:20:36;13.27;;;2.58;;
59127;SDS011;44912;52.754;5.994;2023-04-12T14:23:02;12.35;;;1.90;;
59127;SDS011;44912;52.754;5.994;2023-04-12T14:25:28;13.45;;;2.30;;
59127;SDS011;44912;52.754;5.994;2023-04-12T14:27:53;11.32;;;2.20;;
59127;SDS011;44912;52.754;5.994;2023-04-12T14:30:19;17.08;;;3.35;;
59127;SDS011;44912;52.754;5.994;2023-04-12T14:32:45;11.85;;;2.10;;
59127;SDS011;44912;52.754;5.994;2023-04-12T14:35:11;10.75;;;1.85;;
59127;SDS011;44912;52.754;5.994;2023-04-12T14:37:36;8.18;;;1.40;;
59127;SDS011;44912;52.754;5.994;2023-04-12T14:40:02;8.07;;;1.60;;
59127;SDS011;44912;52.754;5.994;2023-04-12T14:42:30;8.07;;;1.55;;
59127;SDS011;44912;52.754;5.994;2023-04-12T14:44:56;9.52;;;1.58;;
59127;SDS011;44912;52.754;5.994;2023-04-12T14:47:22;10.25;;;1.75;;
59127;SDS011;44912;52.754;5.994;2023-04-12T14:49:47;10.85;;;1.90;;
59127;SDS011;44912;52.754;5.994;2023-04-12T14:52:13;9.45;;;1.70;;
59127;SDS011;44912;52.754;5.994;2023-04-12T14:54:38;10.07;;;1.75;;
59127;SDS011;44912;52.754;5.994;2023-04-12T14:57:04;10.55;;;2.33;;
59127;SDS011;44912;52.754;5.994;2023-04-12T14:59:30;11.63;;;1.90;;
59127;SDS011;44912;52.754;5.994;2023-04-12T15:01:56;11.50;;;2.10;;
59127;SDS011;44912;52.754;5.994;2023-04-12T15:04:23;12.85;;;2.50;;
59127;SDS011;44912;52.754;5.994;2023-04-12T15:06:49;11.88;;;1.77;;
59127;SDS011;44912;52.754;5.994;2023-04-12T15:09:15;12.90;;;2.20;;
59127;SDS011;44912;52.754;5.994;2023-04-12T15:11:41;8.25;;;2.05;;